sensor_id;sensor_type;location;lat;lon;timestamp;P1;durP1;ratioP1;P2;durP2;ratioP2
17650;SDS011;26663;59.302;18.082;2023-06-22T00:01:29;9.82;;;7.47;;
17650;SDS011;26663;59.302;18.082;2023-06-22T00:04:34;11.23;;;7.60;;
17650;SDS011;26663;59.302;18.082;2023-06-22T00:07:38;39.92;;;8.95;;
17650;SDS011;26663;59.302;18.082;2023-06-22T00:10:43;25.40;;;8.93;;
17650;SDS011;26663;59.302;18.082;2023-06-22T00:13:49;13.75;;;7.38;;
17650;SDS011;26663;59.302;18.082;2023-06-22T00:16:54;17.83;;;7.80;;
17650;SDS011;26663;59.302;18.082;2023-06-22T00:20:00;12.82;;;7.88;;
17650;SDS011;26663;59.302;18.082;2023-06-22T00:23:10;10.35;;;8.40;;
17650;SDS011;26663;59.302;18.082;2023-06-22T00:26:18;11.55;;;7.85;;
17650;SDS011;26663;59.302;18.082;2023-06-22T00:29:25;15.68;;;8.15;;
17650;SDS011;26663;59.302;18.082;2023-06-22T00:32:31;13.88;;;7.43;;
17650;SDS011;26663;59.302;18.082;2023-06-22T00:35:35;10.57;;;7.93;;
17650;SDS011;26663;59.302;18.082;2023-06-22T00:38:43;11.55;;;8.55;;
17650;SDS011;26663;59.302;18.082;2023-06-22T00:41:48;10.40;;;8.60;;
17650;SDS011;26663;59.302;18.082;2023-06-22T00:44:57;9.13;;;7.82;;
17650;SDS011;26663;59.302;18.082;2023-06-22T00:48:01;15.48;;;7.43;;
17650;SDS011;26663;59.302;18.082;2023-06-22T00:51:07;10.18;;;8.20;;
17650;SDS011;26663;59.302;18.082;2023-06-22T00:54:13;8.80;;;7.80;;
17650;SDS011;26663;59.302;18.082;2023-06-22T00:57:18;22.10;;;8.00;;
17650;SDS011;26663;59.302;18.082;2023-06-22T01:00:24;12.85;;;8.38;;
17650;SDS011;26663;59.302;18.082;2023-06-22T01:03:29;8.95;;;8.18;;
17650;SDS011;26663;59.302;18.082;2023-06-22T01:06:35;14.43;;;8.57;;
17650;SDS011;26663;59.302;18.082;2023-06-22T01:09:45;16.20;;;9.30;;
17650;SDS011;26663;59.302;18.082;2023-06-22T01:12:53;12.68;;;9.20;;
17650;SDS011;26663;59.302;18.082;2023-06-22T01:16:04;10.15;;;9.25;;
17650;SDS011;26663;59.302;18.082;2023-06-22T01:19:17;10.32;;;8.95;;
17650;SDS011;26663;59.302;18.082;2023-06-22T01:22:30;9.98;;;8.98;;
17650;SDS011;26663;59.302;18.082;2023-06-22T01:25:38;10.23;;;9.23;;
17650;SDS011;26663;59.302;18.082;2023-06-22T01:28:50;11.90;;;9.48;;
17650;SDS011;26663;59.302;18.082;2023-06-22T01:31:57;10.07;;;9.10;;
17650;SDS011;26663;59.302;18.082;2023-06-22T01:35:04;10.23;;;8.93;;
17650;SDS011;26663;59.302;18.082;2023-06-22T01:38:09;10.23;;;9.32;;
17650;SDS011;26663;59.302;18.082;2023-06-22T01:41:14;11.35;;;9.35;;
17650;SDS011;26663;59.302;18.082;2023-06-22T01:44:22;10.30;;;9.40;;
17650;SDS011;26663;59.302;18.082;2023-06-22T01:47:29;10.38;;;9.38;;
17650;SDS011;26663;59.302;18.082;2023-06-22T01:50:34;11.90;;;10.00;;
17650;SDS011;26663;59.302;18.082;2023-06-22T01:53:38;11.20;;;10.10;;
17650;SDS011;26663;59.302;18.082;2023-06-22T01:56:43;11.00;;;10.05;;
17650;SDS011;26663;59.302;18.082;2023-06-22T01:59:51;22.52;;;10.80;;
17650;SDS011;26663;59.302;18.082;2023-06-22T02:03:01;11.07;;;9.90;;
17650;SDS011;26663;59.302;18.082;2023-06-22T02:06:13;12.40;;;11.15;;
17650;SDS011;26663;59.302;18.082;2023-06-22T02:09:20;12.93;;;10.55;;
17650;SDS011;26663;59.302;18.082;2023-06-22T02:12:26;11.20;;;10.27;;
17650;SDS011;26663;59.302;18.082;2023-06-22T02:15:33;14.38;;;10.82;;
17650;SDS011;26663;59.302;18.082;2023-06-22T02:18:38;12.05;;;10.85;;
17650;SDS011;26663;59.302;18.082;2023-06-22T02:21:43;12.80;;;10.65;;
17650;SDS011;26663;59.302;18.082;2023-06-22T02:24:48;11.85;;;10.77;;
17650;SDS011;26663;59.302;18.082;2023-06-22T02:27:54;12.02;;;10.85;;
17650;SDS011;26663;59.302;18.082;2023-06-22T02:31:00;11.93;;;9.90;;
17650;SDS011;26663;59.302;18.082;2023-06-22T02:34:05;11.60;;;10.38;;
17650;SDS011;26663;59.302;18.082;2023-06-22T02:37:09;11.20;;;10.13;;
17650;SDS011;26663;59.302;18.082;2023-06-22T02:40:14;13.68;;;10.93;;
17650;SDS011;26663;59.302;18.082;2023-06-22T02:43:19;11.35;;;10.07;;
17650;SDS011;26663;59.302;18.082;2023-06-22T02:46:25;10.52;;;9.45;;
17650;SDS011;26663;59.302;18.082;2023-06-22T02:49:29;16.13;;;9.55;;
17650;SDS011;26663;59.302;18.082;2023-06-22T02:52:34;14.52;;;9.68;;
17650;SDS011;26663;59.302;18.082;2023-06-22T02:55:40;10.50;;;9.52;;
17650;SDS011;26663;59.302;18.082;2023-06-22T02:58:45;10.63;;;9.73;;
17650;SDS011;26663;59.302;18.082;2023-06-22T03:01:51;15.23;;;9.80;;
17650;SDS011;26663;59.302;18.082;2023-06-22T03:05:00;10.35;;;9.43;;
17650;SDS011;26663;59.302;18.082;2023-06-22T03:08:06;10.52;;;9.73;;
17650;SDS011;26663;59.302;18.082;2023-06-22T03:11:10;10.10;;;9.25;;
17650;SDS011;26663;59.302;18.082;2023-06-22T03:14:16;10.02;;;9.13;;
17650;SDS011;26663;59.302;18.082;2023-06-22T03:17:22;11.35;;;9.20;;
17650;SDS011;26663;59.302;18.082;2023-06-22T03:20:26;10.02;;;9.23;;
17650;SDS011;26663;59.302;18.082;2023-06-22T03:23:35;10.75;;;9.65;;
17650;SDS011;26663;59.302;18.082;2023-06-22T03:26:40;10.73;;;9.82;;
17650;SDS011;26663;59.302;18.082;2023-06-22T03:29:48;10.60;;;9.65;;
17650;SDS011;26663;59.302;18.082;2023-06-22T03:32:55;11.60;;;9.20;;
17650;SDS011;26663;59.302;18.082;2023-06-22T03:36:01;10.75;;;9.95;;
17650;SDS011;26663;59.302;18.082;2023-06-22T03:39:05;11.18;;;10.18;;
17650;SDS011;26663;59.302;18.082;2023-06-22T03:42:10;14.00;;;9.80;;
17650;SDS011;26663;59.302;18.082;2023-06-22T03:45:15;10.32;;;9.18;;
17650;SDS011;26663;59.302;18.082;2023-06-22T03:48:23;10.35;;;9.45;;
17650;SDS011;26663;59.302;18.082;2023-06-22T03:51:27;10.30;;;9.45;;
17650;SDS011;26663;59.302;18.082;2023-06-22T03:54:32;10.75;;;9.70;;
17650;SDS011;26663;59.302;18.082;2023-06-22T03:57:37;15.20;;;10.40;;
17650;SDS011;26663;59.302;18.082;2023-06-22T04:00:41;10.25;;;9.38;;
17650;SDS011;26663;59.302;18.082;2023-06-22T04:03:47;10.15;;;9.40;;
17650;SDS011;26663;59.302;18.082;2023-06-22T04:06:52;12.32;;;9.73;;
17650;SDS011;26663;59.302;18.082;2023-06-22T04:09:57;10.93;;;9.95;;
17650;SDS011;26663;59.302;18.082;2023-06-22T04:13:01;10.13;;;9.32;;
17650;SDS011;26663;59.302;18.082;2023-06-22T04:16:06;11.93;;;9.85;;
17650;SDS011;26663;59.302;18.082;2023-06-22T04:19:12;10.93;;;10.02;;
17650;SDS011;26663;59.302;18.082;2023-06-22T04:22:18;10.95;;;10.05;;
17650;SDS011;26663;59.302;18.082;2023-06-22T04:25:23;9.90;;;9.18;;
17650;SDS011;26663;59.302;18.082;2023-06-22T04:28:27;9.80;;;8.90;;
17650;SDS011;26663;59.302;18.082;2023-06-22T04:31:37;11.25;;;9.93;;
17650;SDS011;26663;59.302;18.082;2023-06-22T04:34:43;9.48;;;8.77;;
17650;SDS011;26663;59.302;18.082;2023-06-22T04:37:48;9.15;;;8.45;;
17650;SDS011;26663;59.302;18.082;2023-06-22T04:40:57;9.02;;;8.40;;
17650;SDS011;26663;59.302;18.082;2023-06-22T04:44:03;8.60;;;8.00;;
17650;SDS011;26663;59.302;18.082;2023-06-22T04:47:08;8.98;;;7.80;;
17650;SDS011;26663;59.302;18.082;2023-06-22T04:50:14;8.35;;;7.60;;
17650;SDS011;26663;59.302;18.082;2023-06-22T04:53:20;8.77;;;8.07;;
17650;SDS011;26663;59.302;18.082;2023-06-22T04:56:24;9.25;;;7.82;;
17650;SDS011;26663;59.302;18.082;2023-06-22T04:59:30;7.88;;;7.30;;
17650;SDS011;26663;59.302;18.082;2023-06-22T05:02:35;9.93;;;7.18;;
17650;SDS011;26663;59.302;18.082;2023-06-22T05:05:42;14.07;;;7.30;;
17650;SDS011;26663;59.302;18.082;2023-06-22T05:08:47;14.48;;;8.23;;
17650;SDS011;26663;59.302;18.082;2023-06-22T05:11:51;11.18;;;7.32;;
17650;SDS011;26663;59.302;18.082;2023-06-22T05:14:56;8.15;;;7.53;;
17650;SDS011;26663;59.302;18.082;2023-06-22T05:18:00;8.05;;;7.38;;
17650;SDS011;26663;59.302;18.082;2023-06-22T05:21:09;7.55;;;7.03;;
17650;SDS011;26663;59.302;18.082;2023-06-22T05:24:13;7.97;;;7.25;;
17650;SDS011;26663;59.302;18.082;2023-06-22T05:27:18;9.75;;;7.40;;
17650;SDS011;26663;59.302;18.082;2023-06-22T05:30:22;7.65;;;6.90;;
17650;SDS011;26663;59.302;18.082;2023-06-22T05:33:27;7.70;;;7.05;;
17650;SDS011;26663;59.302;18.082;2023-06-22T05:36:33;8.80;;;7.68;;
17650;SDS011;26663;59.302;18.082;2023-06-22T05:39:38;7.60;;;7.00;;
17650;SDS011;26663;59.302;18.082;2023-06-22T05:42:42;8.52;;;7.63;;
17650;SDS011;26663;59.302;18.082;2023-06-22T05:45:47;8.05;;;7.35;;
17650;SDS011;26663;59.302;18.082;2023-06-22T05:48:51;8.90;;;7.57;;
17650;SDS011;26663;59.302;18.082;2023-06-22T05:51:58;7.22;;;6.82;;
17650;SDS011;26663;59.302;18.082;2023-06-22T05:55:03;37.83;;;14.88;;
17650;SDS011;26663;59.302;18.082;2023-06-22T05:58:08;13.52;;;8.20;;
17650;SDS011;26663;59.302;18.082;2023-06-22T06:01:12;7.93;;;7.28;;
17650;SDS011;26663;59.302;18.082;2023-06-22T06:04:18;7.70;;;7.07;;
17650;SDS011;26663;59.302;18.082;2023-06-22T06:07:24;6.85;;;6.28;;
17650;SDS011;26663;59.302;18.082;2023-06-22T06:10:29;7.60;;;6.72;;
17650;SDS011;26663;59.302;18.082;2023-06-22T06:13:34;7.72;;;6.72;;
17650;SDS011;26663;59.302;18.082;2023-06-22T06:16:39;7.15;;;6.65;;
17650;SDS011;26663;59.302;18.082;2023-06-22T06:19:44;8.80;;;7.07;;
17650;SDS011;26663;59.302;18.082;2023-06-22T06:22:50;13.07;;;6.95;;
17650;SDS011;26663;59.302;18.082;2023-06-22T06:25:54;7.45;;;6.80;;
17650;SDS011;26663;59.302;18.082;2023-06-22T06:29:00;11.65;;;6.82;;
17650;SDS011;26663;59.302;18.082;2023-06-22T06:32:06;7.32;;;6.57;;
17650;SDS011;26663;59.302;18.082;2023-06-22T06:35:12;8.40;;;6.18;;
17650;SDS011;26663;59.302;18.082;2023-06-22T06:38:19;10.68;;;6.07;;
17650;SDS011;26663;59.302;18.082;2023-06-22T06:41:24;13.50;;;6.40;;
17650;SDS011;26663;59.302;18.082;2023-06-22T06:44:28;8.02;;;5.93;;
17650;SDS011;26663;59.302;18.082;2023-06-22T06:47:33;6.25;;;5.80;;
17650;SDS011;26663;59.302;18.082;2023-06-22T06:50:37;5.53;;;5.18;;
17650;SDS011;26663;59.302;18.082;2023-06-22T06:53:43;9.75;;;5.15;;
17650;SDS011;26663;59.302;18.082;2023-06-22T06:56:48;7.22;;;5.18;;
17650;SDS011;26663;59.302;18.082;2023-06-22T06:59:53;6.28;;;5.68;;
17650;SDS011;26663;59.302;18.082;2023-06-22T07:02:58;8.00;;;5.53;;
17650;SDS011;26663;59.302;18.082;2023-06-22T07:06:02;5.60;;;5.10;;
17650;SDS011;26663;59.302;18.082;2023-06-22T07:09:08;5.07;;;4.72;;
17650;SDS011;26663;59.302;18.082;2023-06-22T07:12:13;5.50;;;5.05;;
17650;SDS011;26663;59.302;18.082;2023-06-22T07:15:18;5.15;;;4.88;;
17650;SDS011;26663;59.302;18.082;2023-06-22T07:18:23;4.85;;;4.55;;
17650;SDS011;26663;59.302;18.082;2023-06-22T07:21:28;8.07;;;4.82;;
17650;SDS011;26663;59.302;18.082;2023-06-22T07:24:34;8.57;;;4.95;;
17650;SDS011;26663;59.302;18.082;2023-06-22T07:27:39;5.53;;;5.05;;
17650;SDS011;26663;59.302;18.082;2023-06-22T07:30:47;5.10;;;4.80;;
17650;SDS011;26663;59.302;18.082;2023-06-22T07:33:53;4.90;;;4.60;;
17650;SDS011;26663;59.302;18.082;2023-06-22T07:36:58;4.80;;;4.50;;
17650;SDS011;26663;59.302;18.082;2023-06-22T07:40:05;5.30;;;4.80;;
17650;SDS011;26663;59.302;18.082;2023-06-22T07:43:11;7.82;;;4.80;;
17650;SDS011;26663;59.302;18.082;2023-06-22T07:46:16;5.32;;;4.82;;
17650;SDS011;26663;59.302;18.082;2023-06-22T07:49:20;9.85;;;4.97;;
17650;SDS011;26663;59.302;18.082;2023-06-22T07:52:25;19.05;;;5.55;;
17650;SDS011;26663;59.302;18.082;2023-06-22T07:55:31;4.63;;;4.45;;
17650;SDS011;26663;59.302;18.082;2023-06-22T07:58:36;5.03;;;4.45;;
17650;SDS011;26663;59.302;18.082;2023-06-22T08:01:40;4.65;;;4.28;;
17650;SDS011;26663;59.302;18.082;2023-06-22T08:04:45;5.97;;;4.57;;
17650;SDS011;26663;59.302;18.082;2023-06-22T08:07:49;4.88;;;4.28;;
17650;SDS011;26663;59.302;18.082;2023-06-22T08:10:56;4.65;;;4.32;;
17650;SDS011;26663;59.302;18.082;2023-06-22T08:14:01;6.93;;;4.07;;
17650;SDS011;26663;59.302;18.082;2023-06-22T08:17:05;5.07;;;4.63;;
17650;SDS011;26663;59.302;18.082;2023-06-22T08:20:11;20.67;;;5.53;;
17650;SDS011;26663;59.302;18.082;2023-06-22T08:23:15;4.72;;;4.43;;
17650;SDS011;26663;59.302;18.082;2023-06-22T08:26:21;9.80;;;4.85;;
17650;SDS011;26663;59.302;18.082;2023-06-22T08:29:26;4.68;;;4.28;;
17650;SDS011;26663;59.302;18.082;2023-06-22T08:32:31;4.78;;;4.35;;
17650;SDS011;26663;59.302;18.082;2023-06-22T08:35:36;5.25;;;4.53;;
17650;SDS011;26663;59.302;18.082;2023-06-22T08:38:40;4.45;;;4.13;;
17650;SDS011;26663;59.302;18.082;2023-06-22T08:41:46;4.55;;;4.35;;
17650;SDS011;26663;59.302;18.082;2023-06-22T08:44:51;5.57;;;4.13;;
17650;SDS011;26663;59.302;18.082;2023-06-22T08:47:56;4.53;;;4.30;;
17650;SDS011;26663;59.302;18.082;2023-06-22T08:51:01;5.63;;;4.05;;
17650;SDS011;26663;59.302;18.082;2023-06-22T08:54:05;4.72;;;4.30;;
17650;SDS011;26663;59.302;18.082;2023-06-22T08:57:12;9.93;;;4.63;;
17650;SDS011;26663;59.302;18.082;2023-06-22T09:00:17;5.28;;;4.22;;
17650;SDS011;26663;59.302;18.082;2023-06-22T09:03:22;7.90;;;4.57;;
17650;SDS011;26663;59.302;18.082;2023-06-22T09:06:28;6.65;;;4.85;;
17650;SDS011;26663;59.302;18.082;2023-06-22T09:09:34;5.97;;;4.22;;
17650;SDS011;26663;59.302;18.082;2023-06-22T09:12:40;7.95;;;4.60;;
17650;SDS011;26663;59.302;18.082;2023-06-22T09:15:45;4.53;;;4.20;;
17650;SDS011;26663;59.302;18.082;2023-06-22T09:18:49;4.35;;;3.90;;
17650;SDS011;26663;59.302;18.082;2023-06-22T09:21:54;5.55;;;4.40;;
17650;SDS011;26663;59.302;18.082;2023-06-22T09:24:59;18.52;;;4.85;;
17650;SDS011;26663;59.302;18.082;2023-06-22T09:28:09;4.85;;;4.18;;
17650;SDS011;26663;59.302;18.082;2023-06-22T09:31:14;6.78;;;4.57;;
17650;SDS011;26663;59.302;18.082;2023-06-22T09:34:19;6.25;;;4.57;;
17650;SDS011;26663;59.302;18.082;2023-06-22T09:37:23;5.45;;;4.15;;
17650;SDS011;26663;59.302;18.082;2023-06-22T09:40:28;4.72;;;4.43;;
17650;SDS011;26663;59.302;18.082;2023-06-22T09:43:36;5.88;;;3.70;;
17650;SDS011;26663;59.302;18.082;2023-06-22T09:46:41;7.70;;;4.18;;
17650;SDS011;26663;59.302;18.082;2023-06-22T09:49:45;7.32;;;4.35;;
17650;SDS011;26663;59.302;18.082;2023-06-22T09:52:50;4.57;;;4.22;;
17650;SDS011;26663;59.302;18.082;2023-06-22T09:55:57;7.15;;;4.25;;
17650;SDS011;26663;59.302;18.082;2023-06-22T09:59:03;4.25;;;3.95;;
17650;SDS011;26663;59.302;18.082;2023-06-22T10:02:19;9.15;;;4.22;;
17650;SDS011;26663;59.302;18.082;2023-06-22T10:05:24;3.80;;;3.58;;
17650;SDS011;26663;59.302;18.082;2023-06-22T10:08:30;6.45;;;3.92;;
17650;SDS011;26663;59.302;18.082;2023-06-22T10:11:34;3.72;;;3.42;;
17650;SDS011;26663;59.302;18.082;2023-06-22T10:14:40;18.75;;;3.65;;
17650;SDS011;26663;59.302;18.082;2023-06-22T10:17:46;10.52;;;3.28;;
17650;SDS011;26663;59.302;18.082;2023-06-22T10:20:50;5.97;;;3.30;;
17650;SDS011;26663;59.302;18.082;2023-06-22T10:23:55;3.85;;;3.63;;
17650;SDS011;26663;59.302;18.082;2023-06-22T10:27:00;3.92;;;3.55;;
17650;SDS011;26663;59.302;18.082;2023-06-22T10:30:09;3.50;;;3.30;;
17650;SDS011;26663;59.302;18.082;2023-06-22T10:33:23;5.30;;;3.22;;
17650;SDS011;26663;59.302;18.082;2023-06-22T10:36:30;5.50;;;3.72;;
17650;SDS011;26663;59.302;18.082;2023-06-22T10:39:34;4.68;;;3.33;;
17650;SDS011;26663;59.302;18.082;2023-06-22T10:42:39;3.10;;;3.00;;
17650;SDS011;26663;59.302;18.082;2023-06-22T10:45:45;6.07;;;3.10;;
17650;SDS011;26663;59.302;18.082;2023-06-22T10:48:51;5.13;;;3.50;;
17650;SDS011;26663;59.302;18.082;2023-06-22T10:51:57;5.10;;;2.75;;
17650;SDS011;26663;59.302;18.082;2023-06-22T10:55:04;8.43;;;3.60;;
17650;SDS011;26663;59.302;18.082;2023-06-22T10:58:09;4.78;;;3.10;;
17650;SDS011;26663;59.302;18.082;2023-06-22T11:01:16;5.93;;;3.00;;
17650;SDS011;26663;59.302;18.082;2023-06-22T11:04:36;3.33;;;3.13;;
17650;SDS011;26663;59.302;18.082;2023-06-22T11:07:41;8.57;;;2.60;;
17650;SDS011;26663;59.302;18.082;2023-06-22T11:10:47;4.25;;;3.08;;
17650;SDS011;26663;59.302;18.082;2023-06-22T11:13:52;3.40;;;3.10;;
17650;SDS011;26663;59.302;18.082;2023-06-22T11:16:58;5.75;;;3.22;;
17650;SDS011;26663;59.302;18.082;2023-06-22T11:20:03;3.25;;;2.85;;
17650;SDS011;26663;59.302;18.082;2023-06-22T11:23:13;5.95;;;2.63;;
17650;SDS011;26663;59.302;18.082;2023-06-22T11:26:18;12.38;;;3.47;;
17650;SDS011;26663;59.302;18.082;2023-06-22T11:29:23;5.00;;;2.95;;
17650;SDS011;26663;59.302;18.082;2023-06-22T11:32:40;3.30;;;2.80;;
17650;SDS011;26663;59.302;18.082;2023-06-22T11:35:44;12.93;;;2.90;;
17650;SDS011;26663;59.302;18.082;2023-06-22T11:38:49;10.10;;;2.80;;
17650;SDS011;26663;59.302;18.082;2023-06-22T11:41:54;8.05;;;3.70;;
17650;SDS011;26663;59.302;18.082;2023-06-22T11:44:59;3.47;;;2.40;;
17650;SDS011;26663;59.302;18.082;2023-06-22T11:48:05;13.88;;;2.97;;
17650;SDS011;26663;59.302;18.082;2023-06-22T11:51:10;5.28;;;2.53;;
17650;SDS011;26663;59.302;18.082;2023-06-22T11:54:14;3.80;;;2.83;;
17650;SDS011;26663;59.302;18.082;2023-06-22T11:57:19;4.25;;;2.45;;
17650;SDS011;26663;59.302;18.082;2023-06-22T12:00:23;4.95;;;2.60;;
17650;SDS011;26663;59.302;18.082;2023-06-22T12:03:33;6.78;;;3.00;;
17650;SDS011;26663;59.302;18.082;2023-06-22T12:06:38;6.03;;;2.75;;
17650;SDS011;26663;59.302;18.082;2023-06-22T12:09:45;4.85;;;2.42;;
17650;SDS011;26663;59.302;18.082;2023-06-22T12:12:49;4.13;;;2.60;;
17650;SDS011;26663;59.302;18.082;2023-06-22T12:15:54;4.07;;;2.80;;
17650;SDS011;26663;59.302;18.082;2023-06-22T12:19:00;11.02;;;2.70;;
17650;SDS011;26663;59.302;18.082;2023-06-22T12:22:04;3.00;;;2.90;;
17650;SDS011;26663;59.302;18.082;2023-06-22T12:25:09;3.42;;;2.60;;
17650;SDS011;26663;59.302;18.082;2023-06-22T12:28:14;3.70;;;2.50;;
17650;SDS011;26663;59.302;18.082;2023-06-22T12:31:19;3.00;;;2.80;;
17650;SDS011;26663;59.302;18.082;2023-06-22T12:34:25;5.22;;;2.95;;
17650;SDS011;26663;59.302;18.082;2023-06-22T12:37:29;4.20;;;2.92;;
17650;SDS011;26663;59.302;18.082;2023-06-22T12:40:35;25.25;;;3.45;;
17650;SDS011;26663;59.302;18.082;2023-06-22T12:43:40;25.15;;;3.85;;
17650;SDS011;26663;59.302;18.082;2023-06-22T12:46:45;4.68;;;2.88;;
17650;SDS011;26663;59.302;18.082;2023-06-22T12:49:51;9.45;;;2.53;;
17650;SDS011;26663;59.302;18.082;2023-06-22T12:52:57;2.88;;;2.63;;
17650;SDS011;26663;59.302;18.082;2023-06-22T12:56:02;5.47;;;2.90;;
17650;SDS011;26663;59.302;18.082;2023-06-22T12:59:07;4.07;;;2.88;;
17650;SDS011;26663;59.302;18.082;2023-06-22T13:02:11;9.55;;;4.18;;
17650;SDS011;26663;59.302;18.082;2023-06-22T13:05:18;7.22;;;3.20;;
17650;SDS011;26663;59.302;18.082;2023-06-22T13:08:23;6.75;;;3.10;;
17650;SDS011;26663;59.302;18.082;2023-06-22T13:11:48;4.68;;;3.25;;
17650;SDS011;26663;59.302;18.082;2023-06-22T13:14:54;8.98;;;2.85;;
17650;SDS011;26663;59.302;18.082;2023-06-22T13:17:59;10.45;;;2.80;;
17650;SDS011;26663;59.302;18.082;2023-06-22T13:21:05;5.88;;;3.03;;
17650;SDS011;26663;59.302;18.082;2023-06-22T13:24:09;3.42;;;2.78;;
17650;SDS011;26663;59.302;18.082;2023-06-22T13:27:14;10.20;;;3.20;;
17650;SDS011;26663;59.302;18.082;2023-06-22T13:30:18;6.25;;;3.33;;
17650;SDS011;26663;59.302;18.082;2023-06-22T13:33:23;4.65;;;3.00;;
17650;SDS011;26663;59.302;18.082;2023-06-22T13:36:29;3.08;;;2.97;;
17650;SDS011;26663;59.302;18.082;2023-06-22T13:39:34;2.97;;;2.90;;
17650;SDS011;26663;59.302;18.082;2023-06-22T13:42:38;3.00;;;2.90;;
17650;SDS011;26663;59.302;18.082;2023-06-22T13:45:43;2.90;;;2.70;;
17650;SDS011;26663;59.302;18.082;2023-06-22T13:48:47;3.28;;;3.08;;
17650;SDS011;26663;59.302;18.082;2023-06-22T13:51:53;6.63;;;2.63;;
17650;SDS011;26663;59.302;18.082;2023-06-22T13:54:58;5.68;;;2.67;;
17650;SDS011;26663;59.302;18.082;2023-06-22T13:58:02;4.93;;;2.92;;
17650;SDS011;26663;59.302;18.082;2023-06-22T14:01:07;4.97;;;2.88;;
17650;SDS011;26663;59.302;18.082;2023-06-22T14:04:32;4.65;;;2.97;;
17650;SDS011;26663;59.302;18.082;2023-06-22T14:07:38;4.78;;;2.78;;
17650;SDS011;26663;59.302;18.082;2023-06-22T14:10:43;14.68;;;3.83;;
17650;SDS011;26663;59.302;18.082;2023-06-22T14:13:47;8.70;;;3.63;;
17650;SDS011;26663;59.302;18.082;2023-06-22T14:16:52;3.85;;;3.10;;
17650;SDS011;26663;59.302;18.082;2023-06-22T14:19:57;3.15;;;3.00;;
17650;SDS011;26663;59.302;18.082;2023-06-22T14:23:03;3.40;;;3.00;;
17650;SDS011;26663;59.302;18.082;2023-06-22T14:26:07;3.15;;;2.95;;
17650;SDS011;26663;59.302;18.082;2023-06-22T14:29:12;9.77;;;3.22;;
17650;SDS011;26663;59.302;18.082;2023-06-22T14:32:16;3.25;;;3.00;;
17650;SDS011;26663;59.302;18.082;2023-06-22T14:35:21;4.82;;;3.05;;
17650;SDS011;26663;59.302;18.082;2023-06-22T14:38:27;3.20;;;3.10;;
17650;SDS011;26663;59.302;18.082;2023-06-22T14:41:32;5.55;;;2.85;;
17650;SDS011;26663;59.302;18.082;2023-06-22T14:44:36;6.47;;;3.20;;
17650;SDS011;26663;59.302;18.082;2023-06-22T14:47:41;4.28;;;3.15;;
17650;SDS011;26663;59.302;18.082;2023-06-22T14:50:46;4.40;;;2.60;;
17650;SDS011;26663;59.302;18.082;2023-06-22T14:53:52;4.20;;;2.78;;
17650;SDS011;26663;59.302;18.082;2023-06-22T14:56:56;16.88;;;3.10;;
17650;SDS011;26663;59.302;18.082;2023-06-22T15:00:01;7.40;;;3.40;;
17650;SDS011;26663;59.302;18.082;2023-06-22T15:03:06;3.17;;;2.97;;
17650;SDS011;26663;59.302;18.082;2023-06-22T15:06:13;9.23;;;3.00;;
17650;SDS011;26663;59.302;18.082;2023-06-22T15:09:19;3.75;;;3.17;;
17650;SDS011;26663;59.302;18.082;2023-06-22T15:12:24;4.78;;;3.00;;
17650;SDS011;26663;59.302;18.082;2023-06-22T15:15:29;3.13;;;2.75;;
17650;SDS011;26663;59.302;18.082;2023-06-22T15:18:33;6.18;;;2.83;;
17650;SDS011;26663;59.302;18.082;2023-06-22T15:21:38;9.52;;;3.00;;
17650;SDS011;26663;59.302;18.082;2023-06-22T15:24:44;3.17;;;2.80;;
17650;SDS011;26663;59.302;18.082;2023-06-22T15:27:50;9.25;;;3.20;;
17650;SDS011;26663;59.302;18.082;2023-06-22T15:30:54;6.40;;;3.10;;
17650;SDS011;26663;59.302;18.082;2023-06-22T15:33:59;2.97;;;2.70;;
17650;SDS011;26663;59.302;18.082;2023-06-22T15:37:05;3.85;;;3.25;;
17650;SDS011;26663;59.302;18.082;2023-06-22T15:40:12;2.97;;;2.75;;
17650;SDS011;26663;59.302;18.082;2023-06-22T15:43:16;3.00;;;2.80;;
17650;SDS011;26663;59.302;18.082;2023-06-22T15:46:22;3.40;;;2.50;;
17650;SDS011;26663;59.302;18.082;2023-06-22T15:49:27;4.18;;;2.85;;
17650;SDS011;26663;59.302;18.082;2023-06-22T15:52:31;3.83;;;2.80;;
17650;SDS011;26663;59.302;18.082;2023-06-22T15:55:37;425.35;;;21.83;;
17650;SDS011;26663;59.302;18.082;2023-06-22T15:58:42;3.08;;;2.65;;
17650;SDS011;26663;59.302;18.082;2023-06-22T16:01:46;5.13;;;2.60;;
17650;SDS011;26663;59.302;18.082;2023-06-22T16:04:51;3.60;;;2.35;;
17650;SDS011;26663;59.302;18.082;2023-06-22T16:07:58;5.38;;;2.80;;
17650;SDS011;26663;59.302;18.082;2023-06-22T16:11:04;11.50;;;3.00;;
17650;SDS011;26663;59.302;18.082;2023-06-22T16:14:09;5.63;;;2.83;;
17650;SDS011;26663;59.302;18.082;2023-06-22T16:17:13;3.00;;;2.80;;
17650;SDS011;26663;59.302;18.082;2023-06-22T16:20:18;4.63;;;3.17;;
17650;SDS011;26663;59.302;18.082;2023-06-22T16:23:23;8.60;;;3.30;;
17650;SDS011;26663;59.302;18.082;2023-06-22T16:26:31;6.85;;;2.72;;
17650;SDS011;26663;59.302;18.082;2023-06-22T16:29:42;6.20;;;3.10;;
17650;SDS011;26663;59.302;18.082;2023-06-22T16:32:50;3.63;;;2.95;;
17650;SDS011;26663;59.302;18.082;2023-06-22T16:35:56;15.82;;;3.20;;
17650;SDS011;26663;59.302;18.082;2023-06-22T16:39:01;8.93;;;3.00;;
17650;SDS011;26663;59.302;18.082;2023-06-22T16:42:08;3.20;;;2.90;;
17650;SDS011;26663;59.302;18.082;2023-06-22T16:45:13;2.70;;;2.50;;
17650;SDS011;26663;59.302;18.082;2023-06-22T16:48:18;17.10;;;3.10;;
17650;SDS011;26663;59.302;18.082;2023-06-22T16:51:22;10.50;;;3.15;;
17650;SDS011;26663;59.302;18.082;2023-06-22T16:54:28;3.47;;;3.20;;
17650;SDS011;26663;59.302;18.082;2023-06-22T16:57:34;3.50;;;2.88;;
17650;SDS011;26663;59.302;18.082;2023-06-22T17:00:39;6.47;;;2.75;;
17650;SDS011;26663;59.302;18.082;2023-06-22T17:03:44;3.60;;;2.65;;
17650;SDS011;26663;59.302;18.082;2023-06-22T17:06:56;2.95;;;2.80;;
17650;SDS011;26663;59.302;18.082;2023-06-22T17:10:02;6.10;;;3.03;;
17650;SDS011;26663;59.302;18.082;2023-06-22T17:13:08;4.15;;;3.17;;
17650;SDS011;26663;59.302;18.082;2023-06-22T17:16:13;5.25;;;2.88;;
17650;SDS011;26663;59.302;18.082;2023-06-22T17:19:18;2.58;;;2.42;;
17650;SDS011;26663;59.302;18.082;2023-06-22T17:22:23;2.83;;;2.63;;
17650;SDS011;26663;59.302;18.082;2023-06-22T17:25:29;3.75;;;2.70;;
17650;SDS011;26663;59.302;18.082;2023-06-22T17:28:47;3.85;;;3.60;;
17650;SDS011;26663;59.302;18.082;2023-06-22T17:31:53;3.35;;;3.10;;
17650;SDS011;26663;59.302;18.082;2023-06-22T17:34:59;4.75;;;2.65;;
17650;SDS011;26663;59.302;18.082;2023-06-22T17:38:04;7.88;;;2.80;;
17650;SDS011;26663;59.302;18.082;2023-06-22T17:41:09;8.20;;;3.33;;
17650;SDS011;26663;59.302;18.082;2023-06-22T17:44:17;5.22;;;3.58;;
17650;SDS011;26663;59.302;18.082;2023-06-22T17:47:22;12.23;;;3.40;;
17650;SDS011;26663;59.302;18.082;2023-06-22T17:50:27;2.65;;;2.55;;
17650;SDS011;26663;59.302;18.082;2023-06-22T17:53:32;3.20;;;3.00;;
17650;SDS011;26663;59.302;18.082;2023-06-22T17:56:37;2.58;;;2.50;;
17650;SDS011;26663;59.302;18.082;2023-06-22T17:59:43;3.13;;;2.60;;
17650;SDS011;26663;59.302;18.082;2023-06-22T18:02:52;3.75;;;2.85;;
17650;SDS011;26663;59.302;18.082;2023-06-22T18:05:57;3.20;;;2.90;;
17650;SDS011;26663;59.302;18.082;2023-06-22T18:09:02;4.45;;;2.30;;
17650;SDS011;26663;59.302;18.082;2023-06-22T18:12:08;2.80;;;2.60;;
17650;SDS011;26663;59.302;18.082;2023-06-22T18:15:15;3.63;;;2.35;;